Time;durP1;ratioP1;P1;durP2;ratioP2;P2;SDS_P1;SDS_P2;PMS_P1;PMS_P2;Temp;Humidity;BMP_temperature;BMP_pressure;BME280_temperature;BME280_humidity;BME280_pressure;Samples;Min_cycle;Max_cycle;Signal;HPM_P1;HPM_P2
2021/01/22 00:01:14;;;;;;;202.67;105.20;;;;;;;;;;4382788;32;20225;-62
2021/01/22 00:03:39;;;;;;;180.77;94.90;;;;;;;;;;4398075;32;20226;-59
2021/01/22 00:06:05;;;;;;;172.13;92.83;;;;;;;;;;4398145;32;20310;-59
2021/01/22 00:08:30;;;;;;;160.23;82.63;;;;;;;;;;4386727;32;20263;-62
2021/01/22 00:10:56;;;;;;;152.27;78.90;;;;;;;;;;4400536;32;20335;-58
2021/01/22 00:13:21;;;;;;;177.57;89.57;;;;;;;;;;4399831;32;20580;-58
2021/01/22 00:15:47;;;;;;;224.10;119.30;;;;;;;;;;4382079;32;20262;-58
2021/01/22 00:18:13;;;;;;;245.10;123.17;;;;;;;;;;4398972;32;20697;-58
2021/01/22 00:20:38;;;;;;;258.40;131.17;;;;;;;;;;4399279;32;20424;-59
2021/01/22 00:23:04;;;;;;;249.07;124.83;;;;;;;;;;4399833;32;20716;-58
2021/01/22 00:25:31;;;;;;;258.17;134.40;;;;;;;;;;4399861;32;20292;-58
2021/01/22 00:27:56;;;;;;;247.53;127.50;;;;;;;;;;4383896;32;20377;-57
2021/01/22 00:30:22;;;;;;;256.57;131.23;;;;;;;;;;4400726;32;20722;-59
2021/01/22 00:32:48;;;;;;;235.97;118.07;;;;;;;;;;4370416;32;20233;-58
2021/01/22 00:35:13;;;;;;;202.63;107.30;;;;;;;;;;4387822;32;20346;-60
2021/01/22 00:37:39;;;;;;;194.20;104.20;;;;;;;;;;4380662;32;20237;-59
2021/01/22 00:40:07;;;;;;;189.03;98.50;;;;;;;;;;4396291;32;20347;-59
2021/01/22 00:42:33;;;;;;;180.10;95.30;;;;;;;;;;4395637;32;20229;-59
2021/01/22 00:44:59;;;;;;;189.90;98.30;;;;;;;;;;4383698;32;20311;-59
2021/01/22 00:47:25;;;;;;;186.63;96.40;;;;;;;;;;4380535;32;21302;-58
2021/01/22 00:49:50;;;;;;;204.87;114.77;;;;;;;;;;4398645;32;20330;-57
2021/01/22 00:52:17;;;;;;;184.67;95.67;;;;;;;;;;4398539;32;20428;-57
2021/01/22 00:54:42;;;;;;;176.70;88.60;;;;;;;;;;4380095;32;20370;-58
2021/01/22 00:57:08;;;;;;;160.80;88.97;;;;;;;;;;4382453;32;20803;-56
2021/01/22 00:59:34;;;;;;;168.97;94.30;;;;;;;;;;4376063;32;20305;-56
2021/01/22 01:01:59;;;;;;;153.73;86.50;;;;;;;;;;4383006;32;20355;-55
2021/01/22 01:04:25;;;;;;;168.87;91.67;;;;;;;;;;4399185;32;20328;-57
2021/01/22 01:06:50;;;;;;;171.00;88.43;;;;;;;;;;4400457;32;20217;-57
2021/01/22 01:09:16;;;;;;;152.17;84.90;;;;;;;;;;4381575;32;20378;-57
2021/01/22 01:11:43;;;;;;;180.63;90.00;;;;;;;;;;4400121;32;20225;-57
2021/01/22 01:14:09;;;;;;;164.37;84.17;;;;;;;;;;4399870;32;20224;-57
2021/01/22 01:16:34;;;;;;;167.07;88.87;;;;;;;;;;4400267;32;20767;-57
2021/01/22 01:19:00;;;;;;;192.80;99.13;;;;;;;;;;4399642;32;20225;-57
2021/01/22 01:21:26;;;;;;;195.80;100.80;;;;;;;;;;4378678;32;20769;-58
2021/01/22 01:23:52;;;;;;;183.00;99.13;;;;;;;;;;4380470;32;20762;-57
2021/01/22 01:26:20;;;;;;;208.67;107.93;;;;;;;;;;4399979;32;20247;-58
2021/01/22 01:28:46;;;;;;;214.13;110.73;;;;;;;;;;4400154;32;20422;-60
2021/01/22 01:31:12;;;;;;;193.60;103.70;;;;;;;;;;4399970;32;20677;-59
2021/01/22 01:33:37;;;;;;;210.97;100.70;;;;;;;;;;4399587;32;20280;-59
2021/01/22 01:36:04;;;;;;;202.93;100.80;;;;;;;;;;4384626;32;20641;-58
2021/01/22 01:38:30;;;;;;;200.90;101.30;;;;;;;;;;4380192;32;20265;-59
2021/01/22 01:40:56;;;;;;;198.47;99.60;;;;;;;;;;4399663;32;20348;-59
2021/01/22 01:43:22;;;;;;;217.93;110.73;;;;;;;;;;4400454;32;20237;-58
2021/01/22 01:45:48;;;;;;;197.60;100.70;;;;;;;;;;4399134;32;20311;-58
2021/01/22 01:48:17;;;;;;;166.77;84.37;;;;;;;;;;4400128;32;20305;-59
2021/01/22 01:50:43;;;;;;;195.90;99.07;;;;;;;;;;4398829;32;20289;-59
2021/01/22 01:53:09;;;;;;;203.87;106.60;;;;;;;;;;4382843;32;20708;-59
2021/01/22 01:55:36;;;;;;;196.50;101.80;;;;;;;;;;4380767;32;20272;-60
2021/01/22 01:58:05;;;;;;;196.53;101.77;;;;;;;;;;4385617;32;20258;-59
2021/01/22 02:00:32;;;;;;;213.60;109.80;;;;;;;;;;4399660;32;20627;-58
2021/01/22 02:02:59;;;;;;;206.07;107.73;;;;;;;;;;4385695;32;20696;-57
2021/01/22 02:05:24;;;;;;;208.27;110.33;;;;;;;;;;4399360;32;20700;-58
2021/01/22 02:07:50;;;;;;;204.97;106.97;;;;;;;;;;4399317;32;20321;-59
2021/01/22 02:10:16;;;;;;;191.20;102.97;;;;;;;;;;4382237;32;20630;-58
2021/01/22 02:12:42;;;;;;;187.27;106.90;;;;;;;;;;4397536;32;20659;-58
2021/01/22 02:15:11;;;;;;;212.20;106.90;;;;;;;;;;4397907;32;20237;-57
2021/01/22 02:17:39;;;;;;;208.20;110.40;;;;;;;;;;4380262;32;20328;-59
2021/01/22 02:20:13;;;;;;;211.73;105.63;;;;;;;;;;4399759;32;20247;-59
2021/01/22 02:22:39;;;;;;;195.90;102.30;;;;;;;;;;4400135;32;20229;-60
2021/01/22 02:25:11;;;;;;;212.40;106.23;;;;;;;;;;4377040;32;20263;-57
2021/01/22 02:27:38;;;;;;;227.40;111.00;;;;;;;;;;4399350;32;20372;-56
2021/01/22 02:30:09;;;;;;;204.30;104.07;;;;;;;;;;4383371;32;20324;-55
2021/01/22 02:32:36;;;;;;;220.43;105.17;;;;;;;;;;4399327;32;20331;-57
2021/01/22 02:35:09;;;;;;;203.50;104.07;;;;;;;;;;4399176;32;20300;-59
2021/01/22 02:37:36;;;;;;;189.37;98.60;;;;;;;;;;4398407;32;20252;-57
2021/01/22 02:40:06;;;;;;;141.97;81.07;;;;;;;;;;4399451;32;20214;-58
2021/01/22 02:42:32;;;;;;;145.13;81.07;;;;;;;;;;4399978;32;20864;-59
2021/01/22 02:44:58;;;;;;;146.93;81.67;;;;;;;;;;4399370;32;20233;-58
2021/01/22 02:47:26;;;;;;;198.47;102.33;;;;;;;;;;4398820;32;20328;-58
2021/01/22 02:49:52;;;;;;;233.63;115.97;;;;;;;;;;4399426;32;20255;-58
2021/01/22 02:52:18;;;;;;;198.03;101.73;;;;;;;;;;4399473;32;20237;-58
2021/01/22 02:54:45;;;;;;;177.80;99.53;;;;;;;;;;4399477;32;20617;-58
2021/01/22 02:57:57;;;;;;;184.00;101.17;;;;;;;;;;4399163;32;20709;-58
2021/01/22 03:00:28;;;;;;;184.23;102.53;;;;;;;;;;4396425;32;20296;-59
2021/01/22 03:02:56;;;;;;;200.73;102.67;;;;;;;;;;4400854;32;20237;-57
2021/01/22 03:05:25;;;;;;;189.07;101.53;;;;;;;;;;4402454;32;20344;-58
2021/01/22 03:07:58;;;;;;;189.17;102.90;;;;;;;;;;4401109;32;20396;-58
2021/01/22 03:10:27;;;;;;;181.40;98.20;;;;;;;;;;4401870;32;20210;-55
2021/01/22 03:12:57;;;;;;;191.20;103.80;;;;;;;;;;4397922;32;20433;-57
2021/01/22 03:15:23;;;;;;;189.47;99.67;;;;;;;;;;4398310;32;20221;-57
2021/01/22 03:17:49;;;;;;;194.47;99.17;;;;;;;;;;4401400;32;20249;-56
2021/01/22 03:20:17;;;;;;;183.97;101.23;;;;;;;;;;4387175;32;20670;-57
2021/01/22 03:22:43;;;;;;;197.40;102.13;;;;;;;;;;4381371;32;20276;-56
2021/01/22 03:25:13;;;;;;;183.07;95.80;;;;;;;;;;4401664;32;20320;-56
2021/01/22 03:27:42;;;;;;;178.10;95.70;;;;;;;;;;4401837;32;20330;-58
2021/01/22 03:30:08;;;;;;;167.40;92.70;;;;;;;;;;4402096;32;20693;-59
2021/01/22 03:32:34;;;;;;;185.47;97.40;;;;;;;;;;4401622;32;20765;-59
2021/01/22 03:34:59;;;;;;;195.77;103.57;;;;;;;;;;4402172;32;20216;-58
2021/01/22 03:37:25;;;;;;;177.50;98.87;;;;;;;;;;4401931;32;20233;-56
2021/01/22 03:39:51;;;;;;;176.57;100.67;;;;;;;;;;4401296;32;20375;-57
2021/01/22 03:42:16;;;;;;;173.43;96.50;;;;;;;;;;4402370;32;20300;-58
2021/01/22 03:44:42;;;;;;;184.97;101.03;;;;;;;;;;4401929;32;20294;-56
2021/01/22 03:47:08;;;;;;;216.23;112.70;;;;;;;;;;4401558;32;20375;-58
2021/01/22 03:49:34;;;;;;;199.93;104.13;;;;;;;;;;4386043;32;20230;-59
2021/01/22 03:52:00;;;;;;;196.50;107.37;;;;;;;;;;4401616;32;20767;-59
2021/01/22 03:54:26;;;;;;;194.40;100.60;;;;;;;;;;4401306;32;20368;-59
2021/01/22 03:56:52;;;;;;;193.33;101.03;;;;;;;;;;4386107;32;20438;-59
2021/01/22 03:59:17;;;;;;;203.33;104.73;;;;;;;;;;4384326;32;20321;-58
2021/01/22 04:01:43;;;;;;;185.73;100.23;;;;;;;;;;4401335;32;20296;-56
2021/01/22 04:04:08;;;;;;;178.13;96.60;;;;;;;;;;4401671;32;20359;-56
2021/01/22 04:06:36;;;;;;;169.80;92.33;;;;;;;;;;4381225;32;20241;-57
2021/01/22 04:09:03;;;;;;;175.73;93.57;;;;;;;;;;4385425;32;20703;-56
2021/01/22 04:11:30;;;;;;;168.80;88.03;;;;;;;;;;4401686;32;20237;-57
2021/01/22 04:13:55;;;;;;;156.90;92.20;;;;;;;;;;4400091;32;20337;-59
2021/01/22 04:16:21;;;;;;;175.37;104.73;;;;;;;;;;4401226;32;20714;-57
2021/01/22 04:18:47;;;;;;;235.90;121.73;;;;;;;;;;4401413;32;20242;-57
2021/01/22 04:21:12;;;;;;;231.93;117.10;;;;;;;;;;4401008;32;20696;-59
2021/01/22 04:23:38;;;;;;;216.20;118.10;;;;;;;;;;4401086;32;20260;-58
2021/01/22 04:26:04;;;;;;;219.00;115.83;;;;;;;;;;4384702;32;20586;-59
2021/01/22 04:28:30;;;;;;;231.53;118.93;;;;;;;;;;4381770;32;20324;-58
2021/01/22 04:30:56;;;;;;;226.33;120.40;;;;;;;;;;4400748;32;20551;-59
2021/01/22 04:33:22;;;;;;;265.00;145.13;;;;;;;;;;4382906;32;20639;-59
2021/01/22 04:35:48;;;;;;;285.20;158.77;;;;;;;;;;4401737;32;20318;-57
2021/01/22 04:38:13;;;;;;;247.57;135.40;;;;;;;;;;4400676;32;20221;-57
2021/01/22 04:40:39;;;;;;;244.20;136.43;;;;;;;;;;4401262;32;20351;-57
2021/01/22 04:43:04;;;;;;;253.97;135.03;;;;;;;;;;4399792;32;20225;-57
2021/01/22 04:45:30;;;;;;;249.13;136.40;;;;;;;;;;4401042;32;20339;-57
2021/01/22 04:47:59;;;;;;;225.37;128.70;;;;;;;;;;4400767;32;20717;-57
2021/01/22 04:50:25;;;;;;;240.70;136.30;;;;;;;;;;4386874;32;20242;-57
2021/01/22 04:52:53;;;;;;;249.63;135.87;;;;;;;;;;4400870;32;20320;-59
2021/01/22 04:55:21;;;;;;;232.73;129.30;;;;;;;;;;4401139;32;20311;-58
2021/01/22 04:57:47;;;;;;;228.13;125.87;;;;;;;;;;4401319;32;20351;-59
2021/01/22 05:00:15;;;;;;;234.30;125.40;;;;;;;;;;4386146;32;20757;-58
2021/01/22 05:02:42;;;;;;;225.40;127.37;;;;;;;;;;4399479;32;20286;-57
2021/01/22 05:05:08;;;;;;;221.33;127.00;;;;;;;;;;4399613;32;20293;-57
2021/01/22 05:07:34;;;;;;;233.57;130.23;;;;;;;;;;4378991;32;20733;-56
2021/01/22 05:10:00;;;;;;;226.67;128.17;;;;;;;;;;4400673;32;20583;-57
2021/01/22 05:12:36;;;;;;;262.63;145.40;;;;;;;;;;4400151;32;20323;-57
2021/01/22 05:15:25;;;;;;;248.30;140.77;;;;;;;;;;4384459;32;21203;-57
2021/01/22 05:17:55;;;;;;;266.17;142.43;;;;;;;;;;4375685;32;20296;-57
2021/01/22 05:20:39;;;;;;;279.67;151.03;;;;;;;;;;4400455;32;20267;-58
2021/01/22 05:23:08;;;;;;;259.80;143.53;;;;;;;;;;4396952;32;20221;-58
2021/01/22 05:25:58;;;;;;;282.57;160.90;;;;;;;;;;4379777;32;20825;-55
2021/01/22 05:28:48;;;;;;;250.27;139.87;;;;;;;;;;4397244;32;20742;-58
2021/01/22 05:31:18;;;;;;;248.77;143.90;;;;;;;;;;4396852;32;20323;-58
2021/01/22 05:33:55;;;;;;;274.40;154.10;;;;;;;;;;4378483;32;20366;-58
2021/01/22 05:36:23;;;;;;;305.57;160.60;;;;;;;;;;4378164;32;20245;-56
2021/01/22 05:38:50;;;;;;;308.10;162.50;;;;;;;;;;4400064;32;20237;-56
2021/01/22 05:41:16;;;;;;;344.97;184.33;;;;;;;;;;4400508;32;20655;-56
2021/01/22 05:43:42;;;;;;;351.87;185.77;;;;;;;;;;4381652;32;20243;-55
2021/01/22 05:46:15;;;;;;;340.47;183.53;;;;;;;;;;4400159;32;20256;-56
2021/01/22 05:48:41;;;;;;;328.07;176.80;;;;;;;;;;4400446;32;20340;-56
2021/01/22 05:51:07;;;;;;;330.90;182.73;;;;;;;;;;4400292;32;20280;-58
2021/01/22 05:53:33;;;;;;;312.03;186.20;;;;;;;;;;4399465;32;20590;-59
2021/01/22 05:56:18;;;;;;;346.47;187.37;;;;;;;;;;4401122;32;20277;-58
2021/01/22 05:58:45;;;;;;;371.70;193.20;;;;;;;;;;4399427;32;20279;-57
2021/01/22 06:01:13;;;;;;;330.33;179.67;;;;;;;;;;4399921;32;20507;-57
2021/01/22 06:03:45;;;;;;;320.30;177.13;;;;;;;;;;4399976;32;20201;-60
2021/01/22 06:06:11;;;;;;;359.83;196.40;;;;;;;;;;4400099;32;20278;-59
2021/01/22 06:08:57;;;;;;;306.13;174.50;;;;;;;;;;4399695;32;20343;-59
2021/01/22 06:11:27;;;;;;;347.90;202.80;;;;;;;;;;4398650;32;20637;-58
2021/01/22 06:13:55;;;;;;;338.03;191.23;;;;;;;;;;4380623;32;20288;-58
2021/01/22 06:16:28;;;;;;;329.23;189.10;;;;;;;;;;4397965;32;20405;-58
2021/01/22 06:19:04;;;;;;;337.73;188.23;;;;;;;;;;4384428;32;20401;-59
2021/01/22 06:21:38;;;;;;;340.63;188.60;;;;;;;;;;4380447;32;20325;-55
2021/01/22 06:24:06;;;;;;;333.70;188.60;;;;;;;;;;4389081;32;20307;-54
2021/01/22 06:26:35;;;;;;;327.17;185.40;;;;;;;;;;4398485;32;20642;-55
2021/01/22 06:29:04;;;;;;;355.00;201.50;;;;;;;;;;4398603;32;20335;-55
2021/01/22 06:31:30;;;;;;;334.87;193.53;;;;;;;;;;4399023;32;20226;-56
2021/01/22 06:33:57;;;;;;;355.27;205.23;;;;;;;;;;4398702;32;20303;-55
2021/01/22 06:36:23;;;;;;;366.30;201.13;;;;;;;;;;4401418;32;20324;-55
2021/01/22 06:38:50;;;;;;;364.50;211.37;;;;;;;;;;4402452;32;20244;-55
2021/01/22 06:41:16;;;;;;;353.37;212.07;;;;;;;;;;4402449;32;20685;-55
2021/01/22 06:43:43;;;;;;;363.00;209.77;;;;;;;;;;4384498;32;20768;-55
2021/01/22 06:46:15;;;;;;;328.10;186.80;;;;;;;;;;4401238;32;20271;-60
2021/01/22 06:48:58;;;;;;;324.17;178.60;;;;;;;;;;4380923;32;20417;-61
2021/01/22 06:51:26;;;;;;;326.30;184.97;;;;;;;;;;4393533;32;20979;-57
2021/01/22 06:54:21;;;;;;;312.47;179.07;;;;;;;;;;4399146;32;20524;-56
2021/01/22 06:56:55;;;;;;;318.57;180.87;;;;;;;;;;4399669;32;20309;-57
2021/01/22 06:59:30;;;;;;;299.43;166.47;;;;;;;;;;4399840;32;20224;-57
2021/01/22 07:01:56;;;;;;;377.07;208.77;;;;;;;;;;4382767;32;20279;-60
2021/01/22 07:04:31;;;;;;;399.97;215.00;;;;;;;;;;4398723;32;20269;-59
2021/01/22 07:06:58;;;;;;;367.60;214.93;;;;;;;;;;4399159;32;20312;-59
2021/01/22 07:09:43;;;;;;;387.33;217.77;;;;;;;;;;4401973;32;20712;-58
2021/01/22 07:12:09;;;;;;;366.47;214.00;;;;;;;;;;4401650;32;20663;-59
2021/01/22 07:14:42;;;;;;;380.40;223.90;;;;;;;;;;4401714;32;20313;-58
2021/01/22 07:17:28;;;;;;;217.10;118.13;;;;;;;;;;4403020;32;20304;-58
2021/01/22 07:20:01;;;;;;;397.87;233.13;;;;;;;;;;4388643;32;20284;-58
2021/01/22 07:22:29;;;;;;;409.53;244.13;;;;;;;;;;4400967;32;20332;-57
2021/01/22 07:24:57;;;;;;;626.73;384.17;;;;;;;;;;4401181;32;20271;-58
2021/01/22 07:27:37;;;;;;;465.03;277.60;;;;;;;;;;4401520;32;20302;-57
2021/01/22 07:30:13;;;;;;;492.17;322.80;;;;;;;;;;4398054;32;20519;-57
2021/01/22 07:32:40;;;;;;;432.90;263.07;;;;;;;;;;4401340;32;20271;-56
2021/01/22 07:35:20;;;;;;;405.70;240.77;;;;;;;;;;4393511;32;20239;-58
2021/01/22 07:37:47;;;;;;;370.70;223.17;;;;;;;;;;4389180;32;20237;-57
2021/01/22 07:40:12;;;;;;;390.83;232.87;;;;;;;;;;4400366;32;20224;-55
2021/01/22 07:42:39;;;;;;;360.50;223.90;;;;;;;;;;4387488;32;20257;-55
2021/01/22 07:45:10;;;;;;;352.90;219.97;;;;;;;;;;4384273;32;20377;-58
2021/01/22 07:47:37;;;;;;;361.40;221.23;;;;;;;;;;4395161;32;20308;-58
2021/01/22 07:50:12;;;;;;;334.57;207.73;;;;;;;;;;4402767;32;20213;-58
2021/01/22 07:52:40;;;;;;;358.83;220.77;;;;;;;;;;4394536;32;20320;-58
2021/01/22 07:55:13;;;;;;;352.13;217.00;;;;;;;;;;4398997;32;20264;-58
2021/01/22 07:57:38;;;;;;;356.57;216.27;;;;;;;;;;4397138;32;20323;-58
2021/01/22 08:00:09;;;;;;;333.60;208.37;;;;;;;;;;4402610;32;20296;-60
2021/01/22 08:02:35;;;;;;;338.73;201.87;;;;;;;;;;4402765;32;20230;-58
2021/01/22 08:05:03;;;;;;;355.37;212.47;;;;;;;;;;4388746;32;20300;-58
2021/01/22 08:07:41;;;;;;;369.27;214.33;;;;;;;;;;4398851;32;20286;-58
2021/01/22 08:10:08;;;;;;;308.20;185.03;;;;;;;;;;4389080;32;20331;-58
2021/01/22 08:12:34;;;;;;;283.93;171.70;;;;;;;;;;4402423;32;20225;-59
2021/01/22 08:15:14;;;;;;;312.97;188.73;;;;;;;;;;4402705;32;20622;-59
2021/01/22 08:17:45;;;;;;;315.07;191.40;;;;;;;;;;4399872;32;20233;-58
2021/01/22 08:20:11;;;;;;;325.03;196.77;;;;;;;;;;4401282;32;20300;-57
2021/01/22 08:22:37;;;;;;;369.53;218.60;;;;;;;;;;4402357;32;20441;-60
2021/01/22 08:25:03;;;;;;;346.00;208.00;;;;;;;;;;4402328;32;20419;-58
2021/01/22 08:27:29;;;;;;;413.93;236.40;;;;;;;;;;4400879;32;20351;-60
2021/01/22 08:29:54;;;;;;;393.37;228.33;;;;;;;;;;4402191;32;20301;-58
2021/01/22 08:32:20;;;;;;;376.77;229.63;;;;;;;;;;4402567;32;20244;-59
2021/01/22 08:34:46;;;;;;;368.10;235.73;;;;;;;;;;4401277;32;20283;-60
2021/01/22 08:37:14;;;;;;;435.13;262.77;;;;;;;;;;4401849;32;20230;-56
2021/01/22 08:39:59;;;;;;;403.33;256.47;;;;;;;;;;4386103;32;20238;-56
2021/01/22 08:42:26;;;;;;;576.47;362.13;;;;;;;;;;4390744;32;20245;-59
2021/01/22 08:45:00;;;;;;;416.77;265.50;;;;;;;;;;4400120;32;20618;-59
2021/01/22 08:47:29;;;;;;;447.07;285.40;;;;;;;;;;4396105;32;20554;-57
2021/01/22 08:49:57;;;;;;;552.07;385.03;;;;;;;;;;4402000;32;20218;-59
2021/01/22 08:52:24;;;;;;;456.53;299.87;;;;;;;;;;4401514;32;20237;-58
2021/01/22 08:54:53;;;;;;;472.03;313.77;;;;;;;;;;4402233;32;20284;-58
2021/01/22 08:57:20;;;;;;;463.43;307.23;;;;;;;;;;4397429;32;20267;-58
2021/01/22 08:59:49;;;;;;;515.87;355.40;;;;;;;;;;4399940;32;20305;-58
2021/01/22 09:02:33;;;;;;;556.90;387.47;;;;;;;;;;4375736;32;20241;-58
2021/01/22 09:05:11;;;;;;;532.23;373.50;;;;;;;;;;4387285;32;20772;-58
2021/01/22 09:07:38;;;;;;;541.83;391.20;;;;;;;;;;4398454;32;20366;-59
2021/01/22 09:10:06;;;;;;;479.57;327.40;;;;;;;;;;4387949;32;20241;-59
2021/01/22 09:12:33;;;;;;;454.30;307.33;;;;;;;;;;4401644;32;20217;-58
2021/01/22 09:15:01;;;;;;;407.13;266.00;;;;;;;;;;4401641;32;20293;-58
2021/01/22 09:17:35;;;;;;;420.90;272.63;;;;;;;;;;4401502;32;20288;-58
2021/01/22 09:20:24;;;;;;;426.83;263.03;;;;;;;;;;4401086;32;21000;-57
2021/01/22 09:22:52;;;;;;;308.57;200.90;;;;;;;;;;4397692;32;20592;-57
2021/01/22 09:25:19;;;;;;;301.33;192.23;;;;;;;;;;4400068;32;20217;-59
2021/01/22 09:27:46;;;;;;;280.63;183.70;;;;;;;;;;4400575;32;20739;-58
2021/01/22 09:30:14;;;;;;;302.87;189.10;;;;;;;;;;4400422;32;20229;-56
2021/01/22 09:32:44;;;;;;;276.47;178.77;;;;;;;;;;4391416;32;20249;-56
2021/01/22 09:35:10;;;;;;;294.57;190.67;;;;;;;;;;4398544;32;20313;-55
2021/01/22 09:37:36;;;;;;;292.97;192.20;;;;;;;;;;4399830;32;20586;-56
2021/01/22 09:40:04;;;;;;;316.53;203.77;;;;;;;;;;4398070;32;20288;-56
2021/01/22 09:42:29;;;;;;;352.30;227.83;;;;;;;;;;4401051;32;20237;-58
2021/01/22 09:44:55;;;;;;;422.37;266.17;;;;;;;;;;4401623;32;20288;-61
2021/01/22 09:47:20;;;;;;;430.60;269.33;;;;;;;;;;4401230;32;20320;-58
2021/01/22 09:49:46;;;;;;;449.73;296.77;;;;;;;;;;4400703;32;20327;-58
2021/01/22 09:52:12;;;;;;;470.67;317.13;;;;;;;;;;4400994;32;20395;-58
2021/01/22 09:54:38;;;;;;;446.03;301.77;;;;;;;;;;4401809;32;20280;-59
2021/01/22 09:57:03;;;;;;;423.17;282.07;;;;;;;;;;4401151;32;20222;-61
2021/01/22 09:59:29;;;;;;;452.13;293.80;;;;;;;;;;4400914;32;20678;-58
2021/01/22 10:01:55;;;;;;;444.67;295.47;;;;;;;;;;4401705;32;20385;-58
2021/01/22 10:04:20;;;;;;;421.70;275.70;;;;;;;;;;4400895;32;20757;-57
2021/01/22 10:06:46;;;;;;;430.13;285.00;;;;;;;;;;4401198;32;20643;-58
2021/01/22 10:09:11;;;;;;;417.87;276.17;;;;;;;;;;4401295;32;20217;-58
2021/01/22 10:11:38;;;;;;;409.20;267.57;;;;;;;;;;4400527;32;20282;-57
2021/01/22 10:14:04;;;;;;;416.57;274.33;;;;;;;;;;4400555;32;20623;-56
2021/01/22 10:16:29;;;;;;;457.33;311.90;;;;;;;;;;4401168;32;20538;-55
2021/01/22 10:18:56;;;;;;;461.57;321.47;;;;;;;;;;4386949;32;20690;-58
2021/01/22 10:21:23;;;;;;;446.03;299.20;;;;;;;;;;4400936;32;20356;-58
2021/01/22 10:23:50;;;;;;;425.90;278.43;;;;;;;;;;4383764;32;20263;-57
2021/01/22 10:26:16;;;;;;;430.63;283.77;;;;;;;;;;4377157;32;20286;-57
2021/01/22 10:28:43;;;;;;;448.30;298.83;;;;;;;;;;4381219;32;20676;-57
2021/01/22 10:31:10;;;;;;;458.00;314.77;;;;;;;;;;4394180;32;20247;-58
2021/01/22 10:33:36;;;;;;;435.73;288.70;;;;;;;;;;4398064;32;20364;-57
2021/01/22 10:36:03;;;;;;;421.60;278.23;;;;;;;;;;4399759;32;20251;-57
2021/01/22 10:38:29;;;;;;;388.70;257.63;;;;;;;;;;4400908;32;20259;-58
2021/01/22 10:40:55;;;;;;;361.53;246.50;;;;;;;;;;4400020;32;20673;-58
2021/01/22 10:43:24;;;;;;;299.37;197.13;;;;;;;;;;4382185;32;20201;-57
2021/01/22 10:45:50;;;;;;;288.37;188.17;;;;;;;;;;4399827;32;20284;-55
2021/01/22 10:48:17;;;;;;;304.13;199.07;;;;;;;;;;4400329;32;20201;-56
2021/01/22 10:50:43;;;;;;;317.87;211.43;;;;;;;;;;4395343;32;20225;-57
2021/01/22 10:53:08;;;;;;;333.77;219.20;;;;;;;;;;4400933;32;20657;-55
2021/01/22 10:55:34;;;;;;;332.00;221.93;;;;;;;;;;4400346;32;20303;-56
2021/01/22 10:58:00;;;;;;;327.67;213.93;;;;;;;;;;4397067;32;20225;-55
2021/01/22 11:00:26;;;;;;;325.40;214.43;;;;;;;;;;4375829;32;20258;-55
2021/01/22 11:02:51;;;;;;;289.20;190.57;;;;;;;;;;4398603;32;20647;-55
2021/01/22 11:05:17;;;;;;;278.70;185.23;;;;;;;;;;4393550;32;20311;-54
2021/01/22 11:07:42;;;;;;;304.30;201.17;;;;;;;;;;4384049;32;20237;-54
2021/01/22 11:10:09;;;;;;;337.53;215.07;;;;;;;;;;4400487;32;20340;-53
2021/01/22 11:12:34;;;;;;;260.83;177.33;;;;;;;;;;4398877;32;20253;-54
2021/01/22 11:15:00;;;;;;;225.37;138.63;;;;;;;;;;4400571;32;20284;-57
2021/01/22 11:17:25;;;;;;;195.57;126.23;;;;;;;;;;4400096;32;20752;-54
2021/01/22 11:19:51;;;;;;;185.97;117.10;;;;;;;;;;4382882;32;20289;-54
2021/01/22 11:22:16;;;;;;;148.20;95.13;;;;;;;;;;4384587;32;20421;-56
2021/01/22 11:24:42;;;;;;;131.17;85.90;;;;;;;;;;4395327;32;20315;-57
2021/01/22 11:27:08;;;;;;;121.73;83.83;;;;;;;;;;4387585;32;20250;-57
2021/01/22 11:29:34;;;;;;;147.73;92.17;;;;;;;;;;4367596;32;20386;-57
2021/01/22 11:31:59;;;;;;;144.00;96.23;;;;;;;;;;4398142;32;20260;-57
2021/01/22 11:34:25;;;;;;;179.77;112.07;;;;;;;;;;4385665;32;20298;-57
2021/01/22 11:36:50;;;;;;;240.77;150.47;;;;;;;;;;4402613;32;20236;-56
2021/01/22 11:39:16;;;;;;;380.73;225.73;;;;;;;;;;4401384;32;20205;-55
2021/01/22 11:41:41;;;;;;;266.37;162.90;;;;;;;;;;4401875;32;20348;-56
2021/01/22 11:44:09;;;;;;;301.23;191.97;;;;;;;;;;4388188;32;20340;-57
2021/01/22 11:46:36;;;;;;;322.33;206.10;;;;;;;;;;4402983;32;20255;-57
2021/01/22 11:49:02;;;;;;;315.60;202.53;;;;;;;;;;4397337;32;20213;-60
2021/01/22 11:51:28;;;;;;;333.17;210.87;;;;;;;;;;4394698;32;20595;-58
2021/01/22 11:53:53;;;;;;;313.67;203.77;;;;;;;;;;4376754;32;20767;-56
2021/01/22 11:57:09;;;;;;;319.70;202.00;;;;;;;;;;4400913;32;20217;-57
2021/01/22 11:59:34;;;;;;;313.43;198.70;;;;;;;;;;4392968;32;20957;-60
2021/01/22 12:02:00;;;;;;;301.93;190.40;;;;;;;;;;4399153;32;20308;-59
2021/01/22 12:04:26;;;;;;;331.40;213.00;;;;;;;;;;4400331;32;20268;-59
2021/01/22 12:06:51;;;;;;;315.60;201.40;;;;;;;;;;4397432;32;20335;-59
2021/01/22 12:09:17;;;;;;;273.00;171.77;;;;;;;;;;4401626;32;20248;-59
2021/01/22 12:11:43;;;;;;;245.53;147.60;;;;;;;;;;4398200;32;20693;-58
2021/01/22 12:14:08;;;;;;;237.83;142.73;;;;;;;;;;4400163;32;20202;-59
2021/01/22 12:16:34;;;;;;;192.03;117.03;;;;;;;;;;4401801;32;20296;-58
2021/01/22 12:18:59;;;;;;;213.90;126.03;;;;;;;;;;4396342;32;20322;-59
2021/01/22 12:21:25;;;;;;;172.53;104.53;;;;;;;;;;4396614;32;20360;-58
2021/01/22 12:23:50;;;;;;;144.87;88.73;;;;;;;;;;4384002;32;20358;-58
2021/01/22 12:26:16;;;;;;;148.67;90.10;;;;;;;;;;4400958;32;20217;-58
2021/01/22 12:28:41;;;;;;;137.77;84.87;;;;;;;;;;4401984;32;20370;-59
2021/01/22 12:31:08;;;;;;;130.30;79.07;;;;;;;;;;4398083;32;20289;-59
2021/01/22 12:33:34;;;;;;;127.27;78.37;;;;;;;;;;4401314;32;20289;-59
2021/01/22 12:36:00;;;;;;;150.47;90.00;;;;;;;;;;4401816;32;20298;-59
2021/01/22 12:38:26;;;;;;;150.20;93.87;;;;;;;;;;4402825;32;20619;-58
2021/01/22 12:40:51;;;;;;;151.10;89.57;;;;;;;;;;4402487;32;20285;-59
2021/01/22 12:43:17;;;;;;;144.00;87.00;;;;;;;;;;4402833;32;20732;-58
2021/01/22 12:45:43;;;;;;;60.97;38.37;;;;;;;;;;4397738;32;20237;-59
2021/01/22 12:48:09;;;;;;;28.60;11.40;;;;;;;;;;4398731;32;20309;-58
2021/01/22 12:50:35;;;;;;;24.97;7.73;;;;;;;;;;4402437;32;20312;-58
2021/01/22 12:53:01;;;;;;;13.53;7.03;;;;;;;;;;4396665;32;20237;-59
2021/01/22 12:55:26;;;;;;;6.10;3.50;;;;;;;;;;4386138;32;20323;-59
2021/01/22 12:57:52;;;;;;;4.27;3.40;;;;;;;;;;4402578;32;21089;-59
2021/01/22 13:00:18;;;;;;;16.70;3.83;;;;;;;;;;4398960;32;20306;-59
2021/01/22 13:02:44;;;;;;;15.47;4.93;;;;;;;;;;4400110;32;20213;-58
2021/01/22 13:05:12;;;;;;;8.27;4.83;;;;;;;;;;4396072;32;20713;-59
2021/01/22 13:07:42;;;;;;;12.13;6.90;;;;;;;;;;4398710;32;20662;-58
2021/01/22 13:10:09;;;;;;;18.10;6.57;;;;;;;;;;4399402;32;20251;-58
2021/01/22 13:12:34;;;;;;;24.67;12.73;;;;;;;;;;4399877;32;20308;-59
2021/01/22 13:15:00;;;;;;;18.37;5.03;;;;;;;;;;4398865;32;20235;-58
2021/01/22 13:17:26;;;;;;;7.00;3.70;;;;;;;;;;4397285;32;20438;-57
2021/01/22 13:19:51;;;;;;;12.40;9.90;;;;;;;;;;4400908;32;20235;-57
2021/01/22 13:22:17;;;;;;;10.63;4.13;;;;;;;;;;4399826;32;20306;-57
2021/01/22 13:24:42;;;;;;;5.67;3.07;;;;;;;;;;4400920;32;20664;-57
2021/01/22 13:27:08;;;;;;;9.27;4.50;;;;;;;;;;4398955;32;20397;-56
2021/01/22 13:29:33;;;;;;;12.53;4.13;;;;;;;;;;4398709;32;20291;-56
2021/01/22 13:31:59;;;;;;;11.67;6.23;;;;;;;;;;4381725;32;20260;-56
2021/01/22 13:34:25;;;;;;;10.77;6.00;;;;;;;;;;4399995;32;20828;-56
2021/01/22 13:36:51;;;;;;;18.70;8.53;;;;;;;;;;4398840;32;20782;-56
2021/01/22 13:39:16;;;;;;;14.30;6.83;;;;;;;;;;4399690;32;20814;-56
2021/01/22 13:41:42;;;;;;;12.43;5.10;;;;;;;;;;4399688;32;20210;-54
2021/01/22 13:44:07;;;;;;;19.33;11.53;;;;;;;;;;4398774;32;20381;-55
2021/01/22 13:46:33;;;;;;;14.87;7.50;;;;;;;;;;4398597;32;20226;-55
2021/01/22 13:48:58;;;;;;;24.07;6.73;;;;;;;;;;4381535;32;20631;-56
2021/01/22 13:51:24;;;;;;;7.77;4.47;;;;;;;;;;4399763;32;20218;-56
2021/01/22 13:53:49;;;;;;;11.90;4.23;;;;;;;;;;4398805;32;20319;-56
2021/01/22 13:56:15;;;;;;;11.30;6.27;;;;;;;;;;4397928;32;20650;-57
2021/01/22 13:58:40;;;;;;;7.17;4.83;;;;;;;;;;4398073;32;20415;-55
2021/01/22 14:01:06;;;;;;;9.47;4.47;;;;;;;;;;4398313;32;20289;-61
2021/01/22 14:03:31;;;;;;;22.47;10.93;;;;;;;;;;4398182;32;20320;-56